Aviation Digital Data Service (ADDS)

Output produced by METARs form (0851 UTC 25 April 2019)
found at http://www.aviationweather.gov/metar/data/
 
TAF DNAA 242130Z 2500/2606 10003KT CAVOK 
     BECMG 2508/2511 23010KT BKN010